Terminal Aerodrome Forecast
Issued by NWS

Home | Current Version | Previous Version | Text Only | Print | Product List | Glossary On
Versions: 1 2 3 4 5 6 7 8 9 10 11 12 13 14 15 16 17 18 19 20 21 22 23 24 25 26 27 28
000
FTUS41 KALY 270531
TAFPSF
TAF
KPSF 270531Z 2706/2806 VRB03KT P6SM SCT070
     FM270900 00000KT 4SM BR BKN070
      TEMPO 2709/2710 2SM BR BKN005
     FM271100 00000KT P6SM BKN070
     FM271600 22006KT P6SM BKN070 PROB30 2717/2723 3SM -TSRA
      OVC030CB
     FM280000 28005KT P6SM SCT060=

USA.gov is the U.S. government's official web portal to all federal, state and local government web resources and services.